Terminal Aerodrome Forecast
Issued by NWS Mt. Holly, NJ

Home | Current Version | Previous Version | Text Only | Print | Product List | Glossary On
Versions: 1 2 3 4 5 6 7 8 9 10 11 12 13 14 15 16 17 18 19 20 21 22 23 24 25 26 27 28 29 30 31 32 33 34 35 36 37 38 39 40
000
FTAK31 PANC 060100 AAA
TAFABE
TAF AMD
PABE 060100Z 0601/0624 06017G24KT P6SM SCT030 BKN080 OVC200
      TEMPO 0601/0603 BKN025
     FM060300 11018G25KT P6SM -SHRA SCT040 OVC060
     FM061200 13009KT P6SM -SHRA BKN040 OVC060=

USA.gov is the U.S. government's official web portal to all federal, state and local government web resources and services.